sensor_id;sensor_type;location;lat;lon;timestamp;P1;durP1;ratioP1;P2;durP2;ratioP2
67272;SDS011;54190;49.770;9.250;2023-05-10T00:00:14;4.50;;;2.40;;
67272;SDS011;54190;49.770;9.250;2023-05-10T00:02:41;3.97;;;2.10;;
67272;SDS011;54190;49.770;9.250;2023-05-10T00:05:07;4.90;;;2.50;;
67272;SDS011;54190;49.770;9.250;2023-05-10T00:07:32;4.50;;;2.13;;
67272;SDS011;54190;49.770;9.250;2023-05-10T00:09:58;2.63;;;1.90;;
67272;SDS011;54190;49.770;9.250;2023-05-10T00:12:24;6.27;;;2.57;;
67272;SDS011;54190;49.770;9.250;2023-05-10T00:14:49;3.30;;;2.40;;
67272;SDS011;54190;49.770;9.250;2023-05-10T00:17:15;3.50;;;2.33;;
67272;SDS011;54190;49.770;9.250;2023-05-10T00:19:41;3.83;;;2.00;;
67272;SDS011;54190;49.770;9.250;2023-05-10T00:22:06;3.73;;;1.50;;
67272;SDS011;54190;49.770;9.250;2023-05-10T00:24:32;2.93;;;1.47;;
67272;SDS011;54190;49.770;9.250;2023-05-10T00:26:58;3.47;;;1.70;;
67272;SDS011;54190;49.770;9.250;2023-05-10T00:29:23;4.10;;;1.80;;
67272;SDS011;54190;49.770;9.250;2023-05-10T00:31:49;2.30;;;1.50;;
67272;SDS011;54190;49.770;9.250;2023-05-10T00:34:14;2.60;;;1.60;;
67272;SDS011;54190;49.770;9.250;2023-05-10T00:36:40;2.40;;;1.67;;
67272;SDS011;54190;49.770;9.250;2023-05-10T00:39:06;2.77;;;1.67;;
67272;SDS011;54190;49.770;9.250;2023-05-10T00:41:32;4.00;;;1.50;;
67272;SDS011;54190;49.770;9.250;2023-05-10T00:43:59;2.60;;;1.60;;
67272;SDS011;54190;49.770;9.250;2023-05-10T00:46:27;2.27;;;1.30;;
67272;SDS011;54190;49.770;9.250;2023-05-10T00:48:54;2.20;;;1.40;;
67272;SDS011;54190;49.770;9.250;2023-05-10T00:51:19;3.40;;;1.33;;
67272;SDS011;54190;49.770;9.250;2023-05-10T00:53:45;5.00;;;1.20;;
67272;SDS011;54190;49.770;9.250;2023-05-10T00:56:11;4.43;;;1.30;;
67272;SDS011;54190;49.770;9.250;2023-05-10T00:58:38;3.10;;;1.20;;
67272;SDS011;54190;49.770;9.250;2023-05-10T01:01:04;4.00;;;1.20;;
67272;SDS011;54190;49.770;9.250;2023-05-10T01:03:31;3.30;;;1.20;;
67272;SDS011;54190;49.770;9.250;2023-05-10T01:05:57;2.40;;;1.20;;
67272;SDS011;54190;49.770;9.250;2023-05-10T01:08:23;2.00;;;1.10;;
67272;SDS011;54190;49.770;9.250;2023-05-10T01:10:49;3.80;;;1.27;;
67272;SDS011;54190;49.770;9.250;2023-05-10T01:13:21;3.60;;;1.20;;
67272;SDS011;54190;49.770;9.250;2023-05-10T01:16:05;3.20;;;1.20;;
67272;SDS011;54190;49.770;9.250;2023-05-10T01:18:35;3.17;;;1.10;;
67272;SDS011;54190;49.770;9.250;2023-05-10T01:21:17;4.93;;;1.43;;
67272;SDS011;54190;49.770;9.250;2023-05-10T01:27:01;2.63;;;1.20;;
67272;SDS011;54190;49.770;9.250;2023-05-10T01:32:24;2.00;;;1.27;;
67272;SDS011;54190;49.770;9.250;2023-05-10T01:37:43;2.37;;;1.20;;
67272;SDS011;54190;49.770;9.250;2023-05-10T01:40:37;1.70;;;0.90;;
67272;SDS011;54190;49.770;9.250;2023-05-10T01:43:07;3.93;;;1.10;;
67272;SDS011;54190;49.770;9.250;2023-05-10T01:45:39;2.73;;;1.30;;
67272;SDS011;54190;49.770;9.250;2023-05-10T01:48:12;2.47;;;1.30;;
67272;SDS011;54190;49.770;9.250;2023-05-10T01:50:41;2.00;;;1.10;;
67272;SDS011;54190;49.770;9.250;2023-05-10T01:53:09;1.70;;;0.90;;
67272;SDS011;54190;49.770;9.250;2023-05-10T01:55:42;2.20;;;0.90;;
67272;SDS011;54190;49.770;9.250;2023-05-10T01:58:32;2.43;;;1.20;;
67272;SDS011;54190;49.770;9.250;2023-05-10T02:00:59;2.33;;;1.13;;
67272;SDS011;54190;49.770;9.250;2023-05-10T02:03:28;2.00;;;1.00;;
67272;SDS011;54190;49.770;9.250;2023-05-10T02:05:56;4.17;;;1.20;;
67272;SDS011;54190;49.770;9.250;2023-05-10T02:08:22;2.10;;;1.00;;
67272;SDS011;54190;49.770;9.250;2023-05-10T02:10:50;3.20;;;1.10;;
67272;SDS011;54190;49.770;9.250;2023-05-10T02:13:18;2.67;;;1.20;;
67272;SDS011;54190;49.770;9.250;2023-05-10T02:15:46;4.03;;;1.27;;
67272;SDS011;54190;49.770;9.250;2023-05-10T02:18:13;3.53;;;1.10;;
67272;SDS011;54190;49.770;9.250;2023-05-10T02:20:41;2.87;;;1.40;;
67272;SDS011;54190;49.770;9.250;2023-05-10T02:23:08;2.50;;;1.50;;
67272;SDS011;54190;49.770;9.250;2023-05-10T02:25:34;3.17;;;1.20;;
67272;SDS011;54190;49.770;9.250;2023-05-10T02:28:02;1.87;;;1.00;;
67272;SDS011;54190;49.770;9.250;2023-05-10T02:30:30;2.30;;;1.10;;
67272;SDS011;54190;49.770;9.250;2023-05-10T02:32:57;6.20;;;1.10;;
67272;SDS011;54190;49.770;9.250;2023-05-10T02:35:24;2.10;;;1.30;;
67272;SDS011;54190;49.770;9.250;2023-05-10T02:37:52;3.50;;;2.10;;
67272;SDS011;54190;49.770;9.250;2023-05-10T02:40:22;2.30;;;1.47;;
67272;SDS011;54190;49.770;9.250;2023-05-10T02:42:50;3.50;;;1.30;;
67272;SDS011;54190;49.770;9.250;2023-05-10T02:45:18;1.80;;;0.97;;
67272;SDS011;54190;49.770;9.250;2023-05-10T02:47:47;1.83;;;1.00;;
67272;SDS011;54190;49.770;9.250;2023-05-10T02:50:13;4.00;;;1.10;;
67272;SDS011;54190;49.770;9.250;2023-05-10T02:52:40;4.40;;;1.33;;
67272;SDS011;54190;49.770;9.250;2023-05-10T02:55:11;3.50;;;1.60;;
67272;SDS011;54190;49.770;9.250;2023-05-10T02:57:41;2.23;;;1.20;;
67272;SDS011;54190;49.770;9.250;2023-05-10T03:00:11;4.50;;;1.30;;
67272;SDS011;54190;49.770;9.250;2023-05-10T03:02:37;4.47;;;1.43;;
67272;SDS011;54190;49.770;9.250;2023-05-10T03:05:03;1.80;;;1.10;;
67272;SDS011;54190;49.770;9.250;2023-05-10T03:07:29;1.80;;;1.10;;
67272;SDS011;54190;49.770;9.250;2023-05-10T03:09:54;4.23;;;1.30;;
67272;SDS011;54190;49.770;9.250;2023-05-10T03:12:27;3.93;;;1.33;;
67272;SDS011;54190;49.770;9.250;2023-05-10T03:15:20;2.30;;;1.40;;
67272;SDS011;54190;49.770;9.250;2023-05-10T03:19:10;2.83;;;1.23;;
67272;SDS011;54190;49.770;9.250;2023-05-10T03:21:29;1.90;;;1.00;;
67272;SDS011;54190;49.770;9.250;2023-05-10T03:24:04;2.13;;;1.10;;
67272;SDS011;54190;49.770;9.250;2023-05-10T03:26:33;2.30;;;1.30;;
67272;SDS011;54190;49.770;9.250;2023-05-10T03:29:11;3.70;;;1.30;;
67272;SDS011;54190;49.770;9.250;2023-05-10T03:31:38;2.20;;;1.40;;
67272;SDS011;54190;49.770;9.250;2023-05-10T03:34:04;3.80;;;1.43;;
67272;SDS011;54190;49.770;9.250;2023-05-10T03:36:31;2.47;;;1.47;;
67272;SDS011;54190;49.770;9.250;2023-05-10T03:38:57;2.00;;;1.30;;
67272;SDS011;54190;49.770;9.250;2023-05-10T03:41:23;2.23;;;1.57;;
67272;SDS011;54190;49.770;9.250;2023-05-10T03:43:50;2.13;;;1.37;;
67272;SDS011;54190;49.770;9.250;2023-05-10T03:46:16;2.37;;;1.40;;
67272;SDS011;54190;49.770;9.250;2023-05-10T03:48:43;2.47;;;1.50;;
67272;SDS011;54190;49.770;9.250;2023-05-10T03:51:08;4.90;;;1.63;;
67272;SDS011;54190;49.770;9.250;2023-05-10T03:53:34;3.90;;;1.60;;
67272;SDS011;54190;49.770;9.250;2023-05-10T03:56:00;2.83;;;1.77;;
67272;SDS011;54190;49.770;9.250;2023-05-10T03:58:26;2.70;;;1.47;;
67272;SDS011;54190;49.770;9.250;2023-05-10T04:00:51;4.17;;;1.63;;
67272;SDS011;54190;49.770;9.250;2023-05-10T04:03:17;5.43;;;1.40;;
67272;SDS011;54190;49.770;9.250;2023-05-10T04:05:43;2.50;;;1.60;;
67272;SDS011;54190;49.770;9.250;2023-05-10T04:08:08;2.67;;;1.90;;
67272;SDS011;54190;49.770;9.250;2023-05-10T04:10:34;2.40;;;1.53;;
67272;SDS011;54190;49.770;9.250;2023-05-10T04:13:00;3.07;;;1.50;;
67272;SDS011;54190;49.770;9.250;2023-05-10T04:15:26;4.43;;;1.60;;
67272;SDS011;54190;49.770;9.250;2023-05-10T04:17:51;6.47;;;1.80;;
67272;SDS011;54190;49.770;9.250;2023-05-10T04:20:17;2.97;;;1.70;;
67272;SDS011;54190;49.770;9.250;2023-05-10T04:22:43;2.37;;;1.63;;
67272;SDS011;54190;49.770;9.250;2023-05-10T04:25:08;3.30;;;1.70;;
67272;SDS011;54190;49.770;9.250;2023-05-10T04:27:34;2.20;;;1.50;;
67272;SDS011;54190;49.770;9.250;2023-05-10T04:30:00;2.30;;;1.53;;
67272;SDS011;54190;49.770;9.250;2023-05-10T04:32:26;3.33;;;1.90;;
67272;SDS011;54190;49.770;9.250;2023-05-10T04:34:51;2.80;;;2.00;;
67272;SDS011;54190;49.770;9.250;2023-05-10T04:37:18;3.40;;;1.60;;
67272;SDS011;54190;49.770;9.250;2023-05-10T04:39:44;2.83;;;2.07;;
67272;SDS011;54190;49.770;9.250;2023-05-10T04:42:09;2.93;;;2.10;;
67272;SDS011;54190;49.770;9.250;2023-05-10T04:44:36;5.30;;;2.80;;
67272;SDS011;54190;49.770;9.250;2023-05-10T04:47:02;3.80;;;2.73;;
67272;SDS011;54190;49.770;9.250;2023-05-10T04:49:28;3.00;;;2.50;;
67272;SDS011;54190;49.770;9.250;2023-05-10T04:51:54;3.60;;;2.80;;
67272;SDS011;54190;49.770;9.250;2023-05-10T04:54:20;5.90;;;3.20;;
67272;SDS011;54190;49.770;9.250;2023-05-10T04:56:46;6.00;;;2.87;;
67272;SDS011;54190;49.770;9.250;2023-05-10T04:59:12;3.13;;;2.70;;
67272;SDS011;54190;49.770;9.250;2023-05-10T05:01:37;3.77;;;2.60;;
67272;SDS011;54190;49.770;9.250;2023-05-10T05:04:03;4.33;;;2.43;;
67272;SDS011;54190;49.770;9.250;2023-05-10T05:06:29;3.67;;;2.80;;
67272;SDS011;54190;49.770;9.250;2023-05-10T05:08:54;3.40;;;2.60;;
67272;SDS011;54190;49.770;9.250;2023-05-10T05:11:20;4.83;;;2.67;;
67272;SDS011;54190;49.770;9.250;2023-05-10T05:13:46;3.00;;;2.47;;
67272;SDS011;54190;49.770;9.250;2023-05-10T05:16:11;4.40;;;2.53;;
67272;SDS011;54190;49.770;9.250;2023-05-10T05:18:37;3.93;;;2.40;;
67272;SDS011;54190;49.770;9.250;2023-05-10T05:21:03;4.87;;;2.97;;
67272;SDS011;54190;49.770;9.250;2023-05-10T05:23:40;4.20;;;2.67;;
67272;SDS011;54190;49.770;9.250;2023-05-10T05:26:05;3.73;;;2.70;;
67272;SDS011;54190;49.770;9.250;2023-05-10T05:28:31;3.80;;;2.73;;
67272;SDS011;54190;49.770;9.250;2023-05-10T05:30:59;3.13;;;2.53;;
67272;SDS011;54190;49.770;9.250;2023-05-10T05:33:24;3.73;;;2.80;;
67272;SDS011;54190;49.770;9.250;2023-05-10T05:35:50;4.63;;;2.80;;
67272;SDS011;54190;49.770;9.250;2023-05-10T05:38:16;3.47;;;3.07;;
67272;SDS011;54190;49.770;9.250;2023-05-10T05:40:42;4.60;;;3.20;;
67272;SDS011;54190;49.770;9.250;2023-05-10T05:43:08;4.63;;;3.03;;
67272;SDS011;54190;49.770;9.250;2023-05-10T05:45:33;4.63;;;3.37;;
67272;SDS011;54190;49.770;9.250;2023-05-10T05:47:59;5.17;;;3.20;;
67272;SDS011;54190;49.770;9.250;2023-05-10T05:50:25;5.17;;;3.23;;
67272;SDS011;54190;49.770;9.250;2023-05-10T05:52:50;5.53;;;3.30;;
67272;SDS011;54190;49.770;9.250;2023-05-10T05:55:16;5.67;;;3.57;;
67272;SDS011;54190;49.770;9.250;2023-05-10T05:57:42;4.97;;;3.40;;
67272;SDS011;54190;49.770;9.250;2023-05-10T06:00:07;3.70;;;2.97;;
67272;SDS011;54190;49.770;9.250;2023-05-10T06:02:39;4.30;;;3.30;;
67272;SDS011;54190;49.770;9.250;2023-05-10T06:05:05;4.37;;;3.10;;
67272;SDS011;54190;49.770;9.250;2023-05-10T06:07:31;4.77;;;3.40;;
67272;SDS011;54190;49.770;9.250;2023-05-10T06:09:57;5.03;;;2.93;;
67272;SDS011;54190;49.770;9.250;2023-05-10T06:12:22;7.10;;;3.10;;
67272;SDS011;54190;49.770;9.250;2023-05-10T06:14:48;5.30;;;3.40;;
67272;SDS011;54190;49.770;9.250;2023-05-10T06:17:13;5.33;;;3.03;;
67272;SDS011;54190;49.770;9.250;2023-05-10T06:19:39;6.40;;;3.63;;
67272;SDS011;54190;49.770;9.250;2023-05-10T06:22:05;4.63;;;2.93;;
67272;SDS011;54190;49.770;9.250;2023-05-10T06:24:30;4.93;;;3.10;;
67272;SDS011;54190;49.770;9.250;2023-05-10T06:26:56;4.50;;;2.63;;
67272;SDS011;54190;49.770;9.250;2023-05-10T06:29:23;6.00;;;2.93;;
67272;SDS011;54190;49.770;9.250;2023-05-10T06:31:48;4.97;;;2.87;;
67272;SDS011;54190;49.770;9.250;2023-05-10T06:34:14;4.40;;;2.93;;
67272;SDS011;54190;49.770;9.250;2023-05-10T06:36:40;6.20;;;2.67;;
67272;SDS011;54190;49.770;9.250;2023-05-10T06:39:06;6.53;;;3.03;;
67272;SDS011;54190;49.770;9.250;2023-05-10T06:41:32;5.37;;;3.00;;
67272;SDS011;54190;49.770;9.250;2023-05-10T06:43:57;4.50;;;3.30;;
67272;SDS011;54190;49.770;9.250;2023-05-10T06:46:23;6.90;;;3.20;;
67272;SDS011;54190;49.770;9.250;2023-05-10T06:48:48;6.47;;;3.10;;
67272;SDS011;54190;49.770;9.250;2023-05-10T06:51:14;4.07;;;3.10;;
67272;SDS011;54190;49.770;9.250;2023-05-10T06:53:40;6.67;;;3.20;;
67272;SDS011;54190;49.770;9.250;2023-05-10T06:56:05;6.33;;;3.00;;
67272;SDS011;54190;49.770;9.250;2023-05-10T06:58:31;5.90;;;2.70;;
67272;SDS011;54190;49.770;9.250;2023-05-10T07:01:04;8.70;;;3.20;;
67272;SDS011;54190;49.770;9.250;2023-05-10T07:03:30;5.30;;;3.00;;
67272;SDS011;54190;49.770;9.250;2023-05-10T07:06:02;8.93;;;3.00;;
67272;SDS011;54190;49.770;9.250;2023-05-10T07:08:32;4.90;;;2.73;;
67272;SDS011;54190;49.770;9.250;2023-05-10T07:11:04;4.13;;;2.53;;
67272;SDS011;54190;49.770;9.250;2023-05-10T07:13:30;4.80;;;2.90;;
67272;SDS011;54190;49.770;9.250;2023-05-10T07:15:57;5.93;;;2.93;;
67272;SDS011;54190;49.770;9.250;2023-05-10T07:18:23;7.03;;;3.03;;
67272;SDS011;54190;49.770;9.250;2023-05-10T07:20:49;10.50;;;2.90;;
67272;SDS011;54190;49.770;9.250;2023-05-10T07:23:15;3.70;;;2.50;;
67272;SDS011;54190;49.770;9.250;2023-05-10T07:25:44;4.00;;;3.17;;
67272;SDS011;54190;49.770;9.250;2023-05-10T07:28:10;4.03;;;3.00;;
67272;SDS011;54190;49.770;9.250;2023-05-10T07:30:36;4.50;;;3.00;;
67272;SDS011;54190;49.770;9.250;2023-05-10T07:33:02;5.33;;;3.00;;
67272;SDS011;54190;49.770;9.250;2023-05-10T07:35:27;6.00;;;3.37;;
67272;SDS011;54190;49.770;9.250;2023-05-10T07:37:53;5.40;;;2.90;;
67272;SDS011;54190;49.770;9.250;2023-05-10T07:40:18;7.03;;;3.50;;
67272;SDS011;54190;49.770;9.250;2023-05-10T07:42:44;6.23;;;3.00;;
67272;SDS011;54190;49.770;9.250;2023-05-10T07:45:10;4.50;;;2.90;;
67272;SDS011;54190;49.770;9.250;2023-05-10T07:47:36;4.33;;;3.07;;
67272;SDS011;54190;49.770;9.250;2023-05-10T07:50:01;6.53;;;3.60;;
67272;SDS011;54190;49.770;9.250;2023-05-10T07:52:27;4.00;;;2.60;;
67272;SDS011;54190;49.770;9.250;2023-05-10T07:54:52;3.57;;;2.90;;
67272;SDS011;54190;49.770;9.250;2023-05-10T07:57:18;4.70;;;3.23;;
67272;SDS011;54190;49.770;9.250;2023-05-10T07:59:44;5.97;;;3.20;;
67272;SDS011;54190;49.770;9.250;2023-05-10T08:02:10;6.43;;;3.87;;
67272;SDS011;54190;49.770;9.250;2023-05-10T08:04:36;3.53;;;3.07;;
67272;SDS011;54190;49.770;9.250;2023-05-10T08:07:01;5.60;;;2.90;;
67272;SDS011;54190;49.770;9.250;2023-05-10T08:09:27;3.40;;;2.83;;
67272;SDS011;54190;49.770;9.250;2023-05-10T08:11:52;4.80;;;3.10;;
67272;SDS011;54190;49.770;9.250;2023-05-10T08:14:18;4.67;;;3.30;;
67272;SDS011;54190;49.770;9.250;2023-05-10T08:16:44;5.73;;;3.00;;
67272;SDS011;54190;49.770;9.250;2023-05-10T08:19:09;4.60;;;3.33;;
67272;SDS011;54190;49.770;9.250;2023-05-10T08:21:35;3.63;;;2.70;;
67272;SDS011;54190;49.770;9.250;2023-05-10T08:24:01;7.37;;;3.70;;
67272;SDS011;54190;49.770;9.250;2023-05-10T08:26:27;5.20;;;3.30;;
67272;SDS011;54190;49.770;9.250;2023-05-10T08:28:52;5.80;;;3.10;;
67272;SDS011;54190;49.770;9.250;2023-05-10T08:31:18;4.50;;;2.77;;
67272;SDS011;54190;49.770;9.250;2023-05-10T08:33:44;5.37;;;3.00;;
67272;SDS011;54190;49.770;9.250;2023-05-10T08:36:09;4.73;;;3.00;;
67272;SDS011;54190;49.770;9.250;2023-05-10T08:38:35;4.30;;;2.93;;
67272;SDS011;54190;49.770;9.250;2023-05-10T08:41:02;3.30;;;2.67;;
67272;SDS011;54190;49.770;9.250;2023-05-10T08:43:29;3.57;;;2.60;;
67272;SDS011;54190;49.770;9.250;2023-05-10T08:45:55;3.40;;;2.83;;
67272;SDS011;54190;49.770;9.250;2023-05-10T08:48:23;4.90;;;3.10;;
67272;SDS011;54190;49.770;9.250;2023-05-10T08:50:50;5.70;;;3.07;;
67272;SDS011;54190;49.770;9.250;2023-05-10T08:53:22;4.63;;;3.00;;
67272;SDS011;54190;49.770;9.250;2023-05-10T08:55:52;5.37;;;3.03;;
67272;SDS011;54190;49.770;9.250;2023-05-10T08:58:18;4.80;;;3.13;;
67272;SDS011;54190;49.770;9.250;2023-05-10T09:00:44;3.70;;;2.80;;
67272;SDS011;54190;49.770;9.250;2023-05-10T09:03:11;3.33;;;2.70;;
67272;SDS011;54190;49.770;9.250;2023-05-10T09:05:38;4.17;;;3.10;;
67272;SDS011;54190;49.770;9.250;2023-05-10T09:08:03;6.33;;;2.77;;
67272;SDS011;54190;49.770;9.250;2023-05-10T09:10:31;3.87;;;2.43;;
67272;SDS011;54190;49.770;9.250;2023-05-10T09:12:57;5.40;;;3.30;;
67272;SDS011;54190;49.770;9.250;2023-05-10T09:15:23;3.40;;;2.80;;
67272;SDS011;54190;49.770;9.250;2023-05-10T09:17:49;3.67;;;2.80;;
67272;SDS011;54190;49.770;9.250;2023-05-10T09:20:15;4.50;;;2.77;;
67272;SDS011;54190;49.770;9.250;2023-05-10T09:22:42;3.83;;;2.87;;
67272;SDS011;54190;49.770;9.250;2023-05-10T09:25:12;3.43;;;2.63;;
67272;SDS011;54190;49.770;9.250;2023-05-10T09:27:44;5.13;;;3.10;;
67272;SDS011;54190;49.770;9.250;2023-05-10T09:30:11;6.07;;;2.60;;
67272;SDS011;54190;49.770;9.250;2023-05-10T09:32:48;3.30;;;2.40;;
67272;SDS011;54190;49.770;9.250;2023-05-10T09:35:16;4.00;;;2.67;;
67272;SDS011;54190;49.770;9.250;2023-05-10T09:37:48;5.33;;;2.97;;
67272;SDS011;54190;49.770;9.250;2023-05-10T09:42:42;8.63;;;3.77;;
67272;SDS011;54190;49.770;9.250;2023-05-10T09:45:16;4.73;;;2.63;;
67272;SDS011;54190;49.770;9.250;2023-05-10T09:47:42;3.30;;;2.60;;
67272;SDS011;54190;49.770;9.250;2023-05-10T09:50:09;4.20;;;2.20;;
67272;SDS011;54190;49.770;9.250;2023-05-10T09:55:12;4.10;;;2.60;;
67272;SDS011;54190;49.770;9.250;2023-05-10T09:57:38;3.73;;;2.47;;
67272;SDS011;54190;49.770;9.250;2023-05-10T10:00:04;2.70;;;2.10;;
67272;SDS011;54190;49.770;9.250;2023-05-10T10:02:38;5.27;;;2.50;;
67272;SDS011;54190;49.770;9.250;2023-05-10T10:05:06;3.70;;;2.37;;
67272;SDS011;54190;49.770;9.250;2023-05-10T10:07:31;3.20;;;2.17;;
67272;SDS011;54190;49.770;9.250;2023-05-10T10:09:58;3.20;;;2.00;;
67272;SDS011;54190;49.770;9.250;2023-05-10T10:12:24;4.63;;;2.23;;
67272;SDS011;54190;49.770;9.250;2023-05-10T10:14:50;2.63;;;2.17;;
67272;SDS011;54190;49.770;9.250;2023-05-10T10:17:16;4.53;;;2.63;;
67272;SDS011;54190;49.770;9.250;2023-05-10T10:19:42;3.00;;;2.13;;
67272;SDS011;54190;49.770;9.250;2023-05-10T10:22:08;4.30;;;2.70;;
67272;SDS011;54190;49.770;9.250;2023-05-10T10:24:37;3.93;;;2.20;;
67272;SDS011;54190;49.770;9.250;2023-05-10T10:27:13;4.27;;;2.10;;
67272;SDS011;54190;49.770;9.250;2023-05-10T10:35:11;4.70;;;2.10;;
67272;SDS011;54190;49.770;9.250;2023-05-10T10:37:41;2.70;;;1.90;;
67272;SDS011;54190;49.770;9.250;2023-05-10T10:40:24;2.53;;;1.87;;
67272;SDS011;54190;49.770;9.250;2023-05-10T10:42:55;2.83;;;1.80;;
67272;SDS011;54190;49.770;9.250;2023-05-10T10:45:21;3.03;;;2.00;;
67272;SDS011;54190;49.770;9.250;2023-05-10T10:47:47;2.43;;;1.93;;
67272;SDS011;54190;49.770;9.250;2023-05-10T10:50:13;2.93;;;1.70;;
67272;SDS011;54190;49.770;9.250;2023-05-10T10:52:41;4.33;;;2.23;;
67272;SDS011;54190;49.770;9.250;2023-05-10T11:10:49;2.50;;;1.80;;
67272;SDS011;54190;49.770;9.250;2023-05-10T11:13:17;4.43;;;1.83;;
67272;SDS011;54190;49.770;9.250;2023-05-10T11:15:56;2.93;;;2.30;;
67272;SDS011;54190;49.770;9.250;2023-05-10T11:18:25;8.20;;;2.20;;
67272;SDS011;54190;49.770;9.250;2023-05-10T11:23:31;5.23;;;2.00;;
67272;SDS011;54190;49.770;9.250;2023-05-10T11:26:12;5.40;;;2.70;;
67272;SDS011;54190;49.770;9.250;2023-05-10T11:28:44;6.00;;;1.70;;
67272;SDS011;54190;49.770;9.250;2023-05-10T11:31:17;4.93;;;2.03;;
67272;SDS011;54190;49.770;9.250;2023-05-10T11:36:16;5.40;;;2.57;;
67272;SDS011;54190;49.770;9.250;2023-05-10T11:38:43;3.27;;;2.10;;
67272;SDS011;54190;49.770;9.250;2023-05-10T11:41:10;2.80;;;1.70;;
67272;SDS011;54190;49.770;9.250;2023-05-10T11:43:38;3.20;;;2.07;;
67272;SDS011;54190;49.770;9.250;2023-05-10T11:46:05;3.90;;;1.90;;
67272;SDS011;54190;49.770;9.250;2023-05-10T11:48:41;10.40;;;2.53;;
67272;SDS011;54190;49.770;9.250;2023-05-10T11:51:07;4.80;;;2.47;;
67272;SDS011;54190;49.770;9.250;2023-05-10T11:53:34;3.47;;;2.53;;
67272;SDS011;54190;49.770;9.250;2023-05-10T11:56:06;6.43;;;2.47;;
67272;SDS011;54190;49.770;9.250;2023-05-10T11:58:33;4.27;;;1.97;;
67272;SDS011;54190;49.770;9.250;2023-05-10T12:01:00;4.20;;;2.30;;
67272;SDS011;54190;49.770;9.250;2023-05-10T12:03:27;3.47;;;2.00;;
67272;SDS011;54190;49.770;9.250;2023-05-10T12:05:53;3.03;;;2.00;;
67272;SDS011;54190;49.770;9.250;2023-05-10T12:08:20;4.63;;;2.10;;
67272;SDS011;54190;49.770;9.250;2023-05-10T12:10:47;3.17;;;2.20;;
67272;SDS011;54190;49.770;9.250;2023-05-10T12:13:13;5.70;;;2.33;;
67272;SDS011;54190;49.770;9.250;2023-05-10T12:15:40;5.83;;;2.77;;
67272;SDS011;54190;49.770;9.250;2023-05-10T12:18:13;4.43;;;2.43;;
67272;SDS011;54190;49.770;9.250;2023-05-10T12:20:40;3.50;;;2.80;;
67272;SDS011;54190;49.770;9.250;2023-05-10T12:23:07;4.10;;;2.50;;
67272;SDS011;54190;49.770;9.250;2023-05-10T12:25:34;6.67;;;2.50;;
67272;SDS011;54190;49.770;9.250;2023-05-10T12:28:05;3.00;;;2.17;;
67272;SDS011;54190;49.770;9.250;2023-05-10T12:30:33;4.30;;;2.20;;
67272;SDS011;54190;49.770;9.250;2023-05-10T12:33:21;4.40;;;2.33;;
67272;SDS011;54190;49.770;9.250;2023-05-10T12:35:49;5.80;;;2.73;;
67272;SDS011;54190;49.770;9.250;2023-05-10T12:38:26;3.43;;;2.37;;
67272;SDS011;54190;49.770;9.250;2023-05-10T12:40:58;3.20;;;2.40;;
67272;SDS011;54190;49.770;9.250;2023-05-10T12:43:25;4.50;;;3.10;;
67272;SDS011;54190;49.770;9.250;2023-05-10T12:45:51;4.47;;;2.43;;
67272;SDS011;54190;49.770;9.250;2023-05-10T12:48:16;2.70;;;2.10;;
67272;SDS011;54190;49.770;9.250;2023-05-10T12:50:42;5.17;;;2.00;;
67272;SDS011;54190;49.770;9.250;2023-05-10T12:53:08;4.63;;;2.17;;
67272;SDS011;54190;49.770;9.250;2023-05-10T12:55:33;7.60;;;2.20;;
67272;SDS011;54190;49.770;9.250;2023-05-10T12:57:59;3.67;;;2.20;;
67272;SDS011;54190;49.770;9.250;2023-05-10T13:00:25;3.60;;;2.17;;
67272;SDS011;54190;49.770;9.250;2023-05-10T13:02:51;12.17;;;6.20;;
67272;SDS011;54190;49.770;9.250;2023-05-10T13:05:17;4.33;;;2.73;;
67272;SDS011;54190;49.770;9.250;2023-05-10T13:07:42;4.07;;;2.57;;
67272;SDS011;54190;49.770;9.250;2023-05-10T13:10:09;3.40;;;2.40;;
67272;SDS011;54190;49.770;9.250;2023-05-10T13:12:35;3.10;;;2.60;;
67272;SDS011;54190;49.770;9.250;2023-05-10T13:15:01;3.83;;;2.93;;
67272;SDS011;54190;49.770;9.250;2023-05-10T13:17:28;3.37;;;2.30;;
67272;SDS011;54190;49.770;9.250;2023-05-10T13:19:54;4.80;;;2.47;;
67272;SDS011;54190;49.770;9.250;2023-05-10T13:22:20;4.00;;;2.73;;
67272;SDS011;54190;49.770;9.250;2023-05-10T13:24:45;3.87;;;2.40;;
67272;SDS011;54190;49.770;9.250;2023-05-10T13:27:11;3.37;;;2.30;;
67272;SDS011;54190;49.770;9.250;2023-05-10T13:29:37;4.37;;;3.10;;
67272;SDS011;54190;49.770;9.250;2023-05-10T13:32:02;5.57;;;2.70;;
67272;SDS011;54190;49.770;9.250;2023-05-10T13:34:30;3.40;;;2.20;;
67272;SDS011;54190;49.770;9.250;2023-05-10T13:36:56;4.23;;;2.30;;
67272;SDS011;54190;49.770;9.250;2023-05-10T13:39:22;3.10;;;2.30;;
67272;SDS011;54190;49.770;9.250;2023-05-10T13:41:48;5.37;;;2.53;;
67272;SDS011;54190;49.770;9.250;2023-05-10T13:44:14;3.00;;;2.13;;
67272;SDS011;54190;49.770;9.250;2023-05-10T13:46:40;4.43;;;2.80;;
67272;SDS011;54190;49.770;9.250;2023-05-10T13:49:08;4.20;;;2.60;;
67272;SDS011;54190;49.770;9.250;2023-05-10T13:51:34;4.10;;;2.40;;
67272;SDS011;54190;49.770;9.250;2023-05-10T13:54:00;3.00;;;2.07;;
67272;SDS011;54190;49.770;9.250;2023-05-10T13:56:29;6.20;;;2.60;;
67272;SDS011;54190;49.770;9.250;2023-05-10T13:58:55;4.57;;;1.80;;
67272;SDS011;54190;49.770;9.250;2023-05-10T14:01:22;3.90;;;1.50;;
67272;SDS011;54190;49.770;9.250;2023-05-10T14:03:48;2.90;;;1.77;;
67272;SDS011;54190;49.770;9.250;2023-05-10T14:06:14;2.53;;;1.90;;
67272;SDS011;54190;49.770;9.250;2023-05-10T14:08:39;3.13;;;1.50;;
67272;SDS011;54190;49.770;9.250;2023-05-10T14:11:05;2.77;;;1.73;;
67272;SDS011;54190;49.770;9.250;2023-05-10T14:13:31;3.93;;;1.80;;
67272;SDS011;54190;49.770;9.250;2023-05-10T14:15:56;5.10;;;1.90;;
67272;SDS011;54190;49.770;9.250;2023-05-10T14:18:22;2.60;;;1.80;;
67272;SDS011;54190;49.770;9.250;2023-05-10T14:20:48;3.57;;;1.90;;
67272;SDS011;54190;49.770;9.250;2023-05-10T14:23:14;4.97;;;2.10;;
67272;SDS011;54190;49.770;9.250;2023-05-10T14:25:40;3.80;;;1.80;;
67272;SDS011;54190;49.770;9.250;2023-05-10T14:28:05;5.43;;;1.93;;
67272;SDS011;54190;49.770;9.250;2023-05-10T14:30:31;3.70;;;1.67;;
67272;SDS011;54190;49.770;9.250;2023-05-10T14:32:59;3.10;;;1.73;;
67272;SDS011;54190;49.770;9.250;2023-05-10T14:35:26;5.70;;;1.83;;
67272;SDS011;54190;49.770;9.250;2023-05-10T14:37:52;4.23;;;1.90;;
67272;SDS011;54190;49.770;9.250;2023-05-10T14:40:18;3.03;;;1.70;;
67272;SDS011;54190;49.770;9.250;2023-05-10T14:42:44;3.80;;;2.07;;
67272;SDS011;54190;49.770;9.250;2023-05-10T14:45:10;6.47;;;1.97;;
67272;SDS011;54190;49.770;9.250;2023-05-10T14:47:36;6.33;;;2.30;;
67272;SDS011;54190;49.770;9.250;2023-05-10T14:50:01;5.93;;;1.73;;
67272;SDS011;54190;49.770;9.250;2023-05-10T14:52:27;5.40;;;1.87;;
67272;SDS011;54190;49.770;9.250;2023-05-10T14:54:53;3.90;;;2.00;;
67272;SDS011;54190;49.770;9.250;2023-05-10T14:57:19;4.53;;;2.00;;
67272;SDS011;54190;49.770;9.250;2023-05-10T14:59:44;2.70;;;1.87;;
67272;SDS011;54190;49.770;9.250;2023-05-10T15:02:10;2.83;;;1.80;;
67272;SDS011;54190;49.770;9.250;2023-05-10T15:04:36;3.67;;;1.67;;
67272;SDS011;54190;49.770;9.250;2023-05-10T15:07:02;3.07;;;1.87;;
67272;SDS011;54190;49.770;9.250;2023-05-10T15:09:28;4.20;;;2.10;;
67272;SDS011;54190;49.770;9.250;2023-05-10T15:11:54;3.10;;;1.80;;
67272;SDS011;54190;49.770;9.250;2023-05-10T15:14:20;7.63;;;2.20;;
67272;SDS011;54190;49.770;9.250;2023-05-10T15:16:45;4.43;;;1.97;;
67272;SDS011;54190;49.770;9.250;2023-05-10T15:19:11;4.10;;;1.63;;
67272;SDS011;54190;49.770;9.250;2023-05-10T15:21:37;3.43;;;1.50;;
67272;SDS011;54190;49.770;9.250;2023-05-10T15:24:07;2.93;;;1.50;;
67272;SDS011;54190;49.770;9.250;2023-05-10T15:26:33;3.43;;;1.60;;
67272;SDS011;54190;49.770;9.250;2023-05-10T15:28:59;3.70;;;1.73;;